sensor_id;sensor_type;location;lat;lon;timestamp;pressure;altitude;pressure_sealevel;temperature;humidity
49813;BME280;35706;52.100;5.056;2023-08-21T00:00:07;102245.44;;;23.98;59.10
49813;BME280;35706;52.100;5.056;2023-08-21T00:01:08;102245.59;;;23.97;59.05
49813;BME280;35706;52.100;5.056;2023-08-21T00:02:08;102240.81;;;23.92;59.09
49813;BME280;35706;52.100;5.056;2023-08-21T00:03:08;102244.16;;;23.94;59.55
49813;BME280;35706;52.100;5.056;2023-08-21T00:04:09;102245.66;;;24.04;59.28
49813;BME280;35706;52.100;5.056;2023-08-21T00:05:10;102242.84;;;24.33;58.90
49813;BME280;35706;52.100;5.056;2023-08-21T00:06:12;102243.13;;;24.38;58.86
49813;BME280;35706;52.100;5.056;2023-08-21T00:07:12;102241.81;;;24.56;58.18
49813;BME280;35706;52.100;5.056;2023-08-21T00:08:13;102243.16;;;24.67;57.71
49813;BME280;35706;52.100;5.056;2023-08-21T00:09:13;102241.28;;;24.67;57.98
49813;BME280;35706;52.100;5.056;2023-08-21T00:10:13;102243.19;;;24.73;57.68
49813;BME280;35706;52.100;5.056;2023-08-21T00:11:14;102249.84;;;24.77;57.80
49813;BME280;35706;52.100;5.056;2023-08-21T00:12:14;102238.84;;;24.72;57.88
49813;BME280;35706;52.100;5.056;2023-08-21T00:13:14;102244.31;;;24.86;56.99
49813;BME280;35706;52.100;5.056;2023-08-21T00:14:15;102247.22;;;24.91;56.70
49813;BME280;35706;52.100;5.056;2023-08-21T00:15:15;102252.06;;;25.02;56.46
49813;BME280;35706;52.100;5.056;2023-08-21T00:16:17;102251.88;;;24.75;57.13
49813;BME280;35706;52.100;5.056;2023-08-21T00:17:17;102245.97;;;24.37;58.00
49813;BME280;35706;52.100;5.056;2023-08-21T00:18:18;102248.34;;;24.04;59.23
49813;BME280;35706;52.100;5.056;2023-08-21T00:19:18;102253.13;;;23.87;60.13
49813;BME280;35706;52.100;5.056;2023-08-21T00:20:18;102248.34;;;23.67;60.91
49813;BME280;35706;52.100;5.056;2023-08-21T00:21:19;102248.94;;;23.63;60.83
49813;BME280;35706;52.100;5.056;2023-08-21T00:22:20;102256.38;;;23.46;61.31
49813;BME280;35706;52.100;5.056;2023-08-21T00:23:20;102256.66;;;23.72;60.77
49813;BME280;35706;52.100;5.056;2023-08-21T00:24:21;102259.03;;;23.97;60.07
49813;BME280;35706;52.100;5.056;2023-08-21T00:25:21;102256.16;;;24.20;59.75
49813;BME280;35706;52.100;5.056;2023-08-21T00:26:22;102251.31;;;24.30;59.31
49813;BME280;35706;52.100;5.056;2023-08-21T00:27:22;102251.50;;;24.50;58.59
49813;BME280;35706;52.100;5.056;2023-08-21T00:28:22;102263.28;;;24.49;58.40
49813;BME280;35706;52.100;5.056;2023-08-21T00:29:23;102256.28;;;24.55;58.35
49813;BME280;35706;52.100;5.056;2023-08-21T00:30:23;102257.19;;;24.62;57.93
49813;BME280;35706;52.100;5.056;2023-08-21T00:31:24;102262.81;;;24.24;59.49
49813;BME280;35706;52.100;5.056;2023-08-21T00:32:24;102249.84;;;23.55;61.50
49813;BME280;35706;52.100;5.056;2023-08-21T00:33:24;102252.63;;;23.62;61.73
49813;BME280;35706;52.100;5.056;2023-08-21T00:34:25;102252.84;;;23.96;60.61
49813;BME280;35706;52.100;5.056;2023-08-21T00:35:25;102253.66;;;24.18;60.35
49813;BME280;35706;52.100;5.056;2023-08-21T00:36:25;102245.94;;;24.30;60.38
49813;BME280;35706;52.100;5.056;2023-08-21T00:37:25;102251.22;;;24.45;59.56
49813;BME280;35706;52.100;5.056;2023-08-21T00:38:26;102245.09;;;24.51;59.50
49813;BME280;35706;52.100;5.056;2023-08-21T00:39:27;102239.78;;;24.58;59.19
49813;BME280;35706;52.100;5.056;2023-08-21T00:40:28;102240.59;;;24.58;59.17
49813;BME280;35706;52.100;5.056;2023-08-21T00:41:28;102244.75;;;24.61;59.23
49813;BME280;35706;52.100;5.056;2023-08-21T00:42:28;102242.75;;;24.70;59.00
49813;BME280;35706;52.100;5.056;2023-08-21T00:43:29;102234.66;;;24.70;58.70
49813;BME280;35706;52.100;5.056;2023-08-21T00:44:29;102240.28;;;24.68;58.56
49813;BME280;35706;52.100;5.056;2023-08-21T00:45:30;102235.66;;;24.62;58.96
49813;BME280;35706;52.100;5.056;2023-08-21T00:46:31;102242.47;;;24.58;59.04
49813;BME280;35706;52.100;5.056;2023-08-21T00:47:32;102243.44;;;24.50;59.16
49813;BME280;35706;52.100;5.056;2023-08-21T00:48:33;102247.88;;;24.65;58.50
49813;BME280;35706;52.100;5.056;2023-08-21T00:49:33;102240.16;;;24.55;58.97
49813;BME280;35706;52.100;5.056;2023-08-21T00:50:34;102239.72;;;24.51;59.08
49813;BME280;35706;52.100;5.056;2023-08-21T00:51:34;102238.34;;;24.62;58.67
49813;BME280;35706;52.100;5.056;2023-08-21T00:52:35;102238.13;;;24.64;58.61
49813;BME280;35706;52.100;5.056;2023-08-21T00:53:36;102238.31;;;24.55;59.27
49813;BME280;35706;52.100;5.056;2023-08-21T00:54:37;102238.25;;;24.49;59.85
49813;BME280;35706;52.100;5.056;2023-08-21T00:55:38;102236.81;;;24.53;59.93
49813;BME280;35706;52.100;5.056;2023-08-21T00:56:38;102238.50;;;24.54;59.67
49813;BME280;35706;52.100;5.056;2023-08-21T00:57:39;102237.50;;;24.62;59.23
49813;BME280;35706;52.100;5.056;2023-08-21T00:58:40;102234.94;;;24.75;58.82
49813;BME280;35706;52.100;5.056;2023-08-21T00:59:40;102235.91;;;24.67;58.94
49813;BME280;35706;52.100;5.056;2023-08-21T01:00:41;102231.78;;;24.71;58.85
49813;BME280;35706;52.100;5.056;2023-08-21T01:01:44;102232.31;;;24.53;59.19
49813;BME280;35706;52.100;5.056;2023-08-21T01:02:44;102231.84;;;24.28;60.57
49813;BME280;35706;52.100;5.056;2023-08-21T01:03:45;102235.81;;;24.32;60.11
49813;BME280;35706;52.100;5.056;2023-08-21T01:04:45;102232.59;;;24.44;59.90
49813;BME280;35706;52.100;5.056;2023-08-21T01:05:45;102235.91;;;24.46;59.85
49813;BME280;35706;52.100;5.056;2023-08-21T01:06:46;102233.63;;;24.43;60.28
49813;BME280;35706;52.100;5.056;2023-08-21T01:08:01;102235.00;;;24.53;60.15
49813;BME280;35706;52.100;5.056;2023-08-21T01:09:06;102238.38;;;24.41;59.79
49813;BME280;35706;52.100;5.056;2023-08-21T01:10:17;102232.31;;;24.53;59.48
49813;BME280;35706;52.100;5.056;2023-08-21T01:11:37;102239.56;;;24.38;60.04
49813;BME280;35706;52.100;5.056;2023-08-21T01:12:51;102233.50;;;24.51;59.57
49813;BME280;35706;52.100;5.056;2023-08-21T01:14:11;102232.81;;;23.99;61.04
49813;BME280;35706;52.100;5.056;2023-08-21T01:15:14;102230.31;;;23.97;61.26
49813;BME280;35706;52.100;5.056;2023-08-21T01:16:16;102230.84;;;23.71;62.08
49813;BME280;35706;52.100;5.056;2023-08-21T01:17:17;102229.38;;;24.05;61.19
49813;BME280;35706;52.100;5.056;2023-08-21T01:18:18;102230.47;;;24.11;61.55
49813;BME280;35706;52.100;5.056;2023-08-21T01:19:31;102240.19;;;24.12;61.05
49813;BME280;35706;52.100;5.056;2023-08-21T01:20:35;102241.34;;;24.03;61.10
49813;BME280;35706;52.100;5.056;2023-08-21T01:21:35;102243.75;;;23.97;61.30
49813;BME280;35706;52.100;5.056;2023-08-21T01:22:40;102236.50;;;23.62;62.37
49813;BME280;35706;52.100;5.056;2023-08-21T01:23:41;102244.34;;;23.27;63.62
49813;BME280;35706;52.100;5.056;2023-08-21T01:24:42;102229.19;;;23.19;63.90
49813;BME280;35706;52.100;5.056;2023-08-21T01:25:43;102239.44;;;23.15;64.27
49813;BME280;35706;52.100;5.056;2023-08-21T01:26:44;102235.13;;;23.14;64.14
49813;BME280;35706;52.100;5.056;2023-08-21T01:27:48;102230.59;;;23.51;63.42
49813;BME280;35706;52.100;5.056;2023-08-21T01:28:50;102232.25;;;23.31;63.79
49813;BME280;35706;52.100;5.056;2023-08-21T01:29:50;102231.69;;;23.21;64.33
49813;BME280;35706;52.100;5.056;2023-08-21T01:30:57;102237.22;;;23.34;63.94
49813;BME280;35706;52.100;5.056;2023-08-21T01:33:26;102229.31;;;23.62;62.74
49813;BME280;35706;52.100;5.056;2023-08-21T01:34:28;102234.16;;;23.88;62.12
49813;BME280;35706;52.100;5.056;2023-08-21T01:35:30;102233.00;;;23.97;61.65
49813;BME280;35706;52.100;5.056;2023-08-21T01:36:31;102235.84;;;24.11;61.31
49813;BME280;35706;52.100;5.056;2023-08-21T01:37:31;102233.00;;;23.97;61.54
49813;BME280;35706;52.100;5.056;2023-08-21T01:38:33;102237.31;;;23.92;61.91
49813;BME280;35706;52.100;5.056;2023-08-21T01:39:34;102239.09;;;23.19;63.80
49813;BME280;35706;52.100;5.056;2023-08-21T01:40:34;102240.41;;;22.55;66.14
49813;BME280;35706;52.100;5.056;2023-08-21T01:41:34;102239.38;;;22.56;66.29
49813;BME280;35706;52.100;5.056;2023-08-21T01:42:35;102236.53;;;22.34;67.45
49813;BME280;35706;52.100;5.056;2023-08-21T01:43:35;102236.19;;;22.38;67.29
49813;BME280;35706;52.100;5.056;2023-08-21T01:44:35;102242.53;;;22.13;68.26
49813;BME280;35706;52.100;5.056;2023-08-21T01:45:36;102232.94;;;22.27;67.79
49813;BME280;35706;52.100;5.056;2023-08-21T01:46:36;102234.63;;;22.20;67.99
49813;BME280;35706;52.100;5.056;2023-08-21T01:47:36;102230.94;;;22.21;68.08
49813;BME280;35706;52.100;5.056;2023-08-21T01:48:37;102239.78;;;21.99;69.07
49813;BME280;35706;52.100;5.056;2023-08-21T01:49:37;102232.25;;;22.02;69.03
49813;BME280;35706;52.100;5.056;2023-08-21T01:50:38;102242.44;;;22.30;67.78
49813;BME280;35706;52.100;5.056;2023-08-21T01:51:38;102240.09;;;22.50;67.38
49813;BME280;35706;52.100;5.056;2023-08-21T01:52:38;102241.78;;;22.51;66.85
49813;BME280;35706;52.100;5.056;2023-08-21T01:53:39;102237.66;;;22.78;66.14
49813;BME280;35706;52.100;5.056;2023-08-21T01:54:39;102239.56;;;23.07;65.13
49813;BME280;35706;52.100;5.056;2023-08-21T01:55:39;102245.75;;;23.23;64.65
49813;BME280;35706;52.100;5.056;2023-08-21T01:56:40;102239.53;;;23.37;64.44
49813;BME280;35706;52.100;5.056;2023-08-21T01:57:40;102239.59;;;23.58;63.75
49813;BME280;35706;52.100;5.056;2023-08-21T01:58:42;102240.03;;;23.77;63.11
49813;BME280;35706;52.100;5.056;2023-08-21T01:59:42;102237.50;;;23.90;62.69
49813;BME280;35706;52.100;5.056;2023-08-21T02:00:45;102239.34;;;24.11;62.27
49813;BME280;35706;52.100;5.056;2023-08-21T02:01:46;102240.75;;;23.86;62.65
49813;BME280;35706;52.100;5.056;2023-08-21T02:02:46;102237.38;;;23.77;63.23
49813;BME280;35706;52.100;5.056;2023-08-21T02:03:46;102239.41;;;23.96;62.76
49813;BME280;35706;52.100;5.056;2023-08-21T02:04:47;102241.69;;;24.00;61.89
49813;BME280;35706;52.100;5.056;2023-08-21T02:05:47;102241.41;;;23.88;62.37
49813;BME280;35706;52.100;5.056;2023-08-21T02:06:47;102243.56;;;23.77;62.71
49813;BME280;35706;52.100;5.056;2023-08-21T02:07:48;102243.31;;;23.94;62.37
49813;BME280;35706;52.100;5.056;2023-08-21T02:08:49;102243.81;;;23.83;62.32
49813;BME280;35706;52.100;5.056;2023-08-21T02:09:49;102243.75;;;23.61;62.32
49813;BME280;35706;52.100;5.056;2023-08-21T02:10:50;102247.53;;;23.67;62.47
49813;BME280;35706;52.100;5.056;2023-08-21T02:11:50;102239.72;;;23.72;62.61
49813;BME280;35706;52.100;5.056;2023-08-21T02:12:52;102243.63;;;23.84;62.25
49813;BME280;35706;52.100;5.056;2023-08-21T02:13:54;102234.34;;;23.50;63.26
49813;BME280;35706;52.100;5.056;2023-08-21T02:14:54;102241.56;;;23.50;63.50
49813;BME280;35706;52.100;5.056;2023-08-21T02:15:54;102246.56;;;23.38;64.19
49813;BME280;35706;52.100;5.056;2023-08-21T02:16:55;102248.91;;;23.11;65.14
49813;BME280;35706;52.100;5.056;2023-08-21T02:17:55;102237.78;;;23.14;64.87
49813;BME280;35706;52.100;5.056;2023-08-21T02:18:55;102243.06;;;23.08;64.90
49813;BME280;35706;52.100;5.056;2023-08-21T02:19:56;102241.91;;;22.87;65.18
49813;BME280;35706;52.100;5.056;2023-08-21T02:20:57;102243.06;;;23.08;64.77
49813;BME280;35706;52.100;5.056;2023-08-21T02:21:57;102238.06;;;23.05;64.69
49813;BME280;35706;52.100;5.056;2023-08-21T02:22:58;102244.81;;;23.01;64.98
49813;BME280;35706;52.100;5.056;2023-08-21T02:23:58;102244.03;;;22.92;65.56
49813;BME280;35706;52.100;5.056;2023-08-21T02:24:59;102246.81;;;22.84;65.44
49813;BME280;35706;52.100;5.056;2023-08-21T02:25:59;102249.56;;;22.61;67.19
49813;BME280;35706;52.100;5.056;2023-08-21T02:26:59;102240.97;;;22.65;67.08
49813;BME280;35706;52.100;5.056;2023-08-21T02:28:00;102246.31;;;22.50;67.96
49813;BME280;35706;52.100;5.056;2023-08-21T02:29:01;102238.22;;;22.35;68.99
49813;BME280;35706;52.100;5.056;2023-08-21T02:30:04;102240.34;;;22.78;67.69
49813;BME280;35706;52.100;5.056;2023-08-21T02:31:04;102242.03;;;23.09;66.20
49813;BME280;35706;52.100;5.056;2023-08-21T02:32:05;102244.34;;;23.27;65.38
49813;BME280;35706;52.100;5.056;2023-08-21T02:33:05;102243.59;;;23.48;64.64
49813;BME280;35706;52.100;5.056;2023-08-21T02:34:05;102244.50;;;23.55;64.81
49813;BME280;35706;52.100;5.056;2023-08-21T02:35:07;102241.78;;;23.70;64.14
49813;BME280;35706;52.100;5.056;2023-08-21T02:36:08;102248.44;;;23.74;63.87
49813;BME280;35706;52.100;5.056;2023-08-21T02:37:08;102239.19;;;23.76;63.72
49813;BME280;35706;52.100;5.056;2023-08-21T02:38:09;102246.66;;;23.81;63.48
49813;BME280;35706;52.100;5.056;2023-08-21T02:39:09;102245.09;;;23.72;63.50
49813;BME280;35706;52.100;5.056;2023-08-21T02:40:09;102240.78;;;23.71;63.71
49813;BME280;35706;52.100;5.056;2023-08-21T02:41:10;102243.44;;;23.86;62.93
49813;BME280;35706;52.100;5.056;2023-08-21T02:42:10;102245.09;;;23.72;63.54
49813;BME280;35706;52.100;5.056;2023-08-21T02:43:10;102247.16;;;23.70;63.62
49813;BME280;35706;52.100;5.056;2023-08-21T02:44:11;102244.25;;;23.86;62.86
49813;BME280;35706;52.100;5.056;2023-08-21T02:45:11;102244.56;;;23.62;64.33
49813;BME280;35706;52.100;5.056;2023-08-21T02:46:12;102247.47;;;23.60;64.11
49813;BME280;35706;52.100;5.056;2023-08-21T02:47:12;102246.88;;;23.80;63.60
49813;BME280;35706;52.100;5.056;2023-08-21T02:48:13;102240.53;;;23.87;62.99
49813;BME280;35706;52.100;5.056;2023-08-21T02:49:13;102238.00;;;24.01;62.26
49813;BME280;35706;52.100;5.056;2023-08-21T02:50:13;102241.53;;;24.01;62.37
49813;BME280;35706;52.100;5.056;2023-08-21T02:51:14;102244.66;;;24.05;62.25
49813;BME280;35706;52.100;5.056;2023-08-21T02:52:14;102238.84;;;24.01;62.26
49813;BME280;35706;52.100;5.056;2023-08-21T02:53:14;102239.34;;;23.90;62.77
49813;BME280;35706;52.100;5.056;2023-08-21T02:54:15;102236.22;;;23.86;62.91
49813;BME280;35706;52.100;5.056;2023-08-21T02:55:15;102231.78;;;23.78;62.98
49813;BME280;35706;52.100;5.056;2023-08-21T02:56:15;102231.94;;;23.92;62.62
49813;BME280;35706;52.100;5.056;2023-08-21T02:57:16;102228.22;;;23.93;62.65
49813;BME280;35706;52.100;5.056;2023-08-21T02:58:16;102230.50;;;23.96;62.38
49813;BME280;35706;52.100;5.056;2023-08-21T02:59:16;102240.66;;;23.64;63.31
49813;BME280;35706;52.100;5.056;2023-08-21T03:00:19;102242.88;;;23.75;63.39
49813;BME280;35706;52.100;5.056;2023-08-21T03:01:20;102235.00;;;23.89;62.61
49813;BME280;35706;52.100;5.056;2023-08-21T03:02:20;102239.13;;;23.55;63.87
49813;BME280;35706;52.100;5.056;2023-08-21T03:03:21;102243.00;;;23.67;63.41
49813;BME280;35706;52.100;5.056;2023-08-21T03:04:21;102235.94;;;23.81;63.22
49813;BME280;35706;52.100;5.056;2023-08-21T03:05:23;102240.28;;;23.82;63.06
49813;BME280;35706;52.100;5.056;2023-08-21T03:06:23;102234.81;;;23.75;63.17
49813;BME280;35706;52.100;5.056;2023-08-21T03:07:23;102238.75;;;23.58;64.27
49813;BME280;35706;52.100;5.056;2023-08-21T03:08:24;102236.97;;;23.65;64.10
49813;BME280;35706;52.100;5.056;2023-08-21T03:09:24;102241.50;;;23.80;63.46
49813;BME280;35706;52.100;5.056;2023-08-21T03:10:24;102248.09;;;23.77;63.72
49813;BME280;35706;52.100;5.056;2023-08-21T03:11:25;102245.72;;;23.89;62.85
49813;BME280;35706;52.100;5.056;2023-08-21T03:12:25;102236.97;;;23.80;63.42
49813;BME280;35706;52.100;5.056;2023-08-21T03:13:25;102238.31;;;23.91;62.81
49813;BME280;35706;52.100;5.056;2023-08-21T03:14:26;102236.28;;;23.93;62.98
49813;BME280;35706;52.100;5.056;2023-08-21T03:15:27;102239.25;;;23.83;63.24
49813;BME280;35706;52.100;5.056;2023-08-21T03:16:27;102235.56;;;23.84;62.73
49813;BME280;35706;52.100;5.056;2023-08-21T03:17:27;102233.72;;;23.85;63.04
49813;BME280;35706;52.100;5.056;2023-08-21T03:18:30;102235.00;;;23.89;63.54
49813;BME280;35706;52.100;5.056;2023-08-21T03:19:31;102231.13;;;23.76;63.88
49813;BME280;35706;52.100;5.056;2023-08-21T03:20:31;102230.84;;;23.86;63.29
49813;BME280;35706;52.100;5.056;2023-08-21T03:21:32;102239.13;;;23.91;63.30
49813;BME280;35706;52.100;5.056;2023-08-21T03:22:32;102227.97;;;23.88;63.16
49813;BME280;35706;52.100;5.056;2023-08-21T03:23:33;102233.97;;;23.90;63.12
49813;BME280;35706;52.100;5.056;2023-08-21T03:24:33;102235.44;;;23.92;63.08
49813;BME280;35706;52.100;5.056;2023-08-21T03:25:33;102234.16;;;23.88;63.07
49813;BME280;35706;52.100;5.056;2023-08-21T03:26:33;102235.81;;;23.89;63.14
49813;BME280;35706;52.100;5.056;2023-08-21T03:27:34;102233.13;;;23.89;62.93
49813;BME280;35706;52.100;5.056;2023-08-21T03:28:39;102233.63;;;23.78;63.51
49813;BME280;35706;52.100;5.056;2023-08-21T03:29:39;102232.59;;;23.79;63.38
49813;BME280;35706;52.100;5.056;2023-08-21T03:30:40;102230.94;;;23.78;63.31
49813;BME280;35706;52.100;5.056;2023-08-21T03:31:41;102232.47;;;23.87;62.94
49813;BME280;35706;52.100;5.056;2023-08-21T03:32:41;102228.28;;;23.78;63.15
49813;BME280;35706;52.100;5.056;2023-08-21T03:33:41;102238.84;;;23.65;64.26
49813;BME280;35706;52.100;5.056;2023-08-21T03:34:42;102231.06;;;23.55;64.88
49813;BME280;35706;52.100;5.056;2023-08-21T03:35:43;102230.91;;;23.56;64.66
49813;BME280;35706;52.100;5.056;2023-08-21T03:36:43;102234.34;;;23.50;64.55
49813;BME280;35706;52.100;5.056;2023-08-21T03:37:43;102234.88;;;23.61;64.25
49813;BME280;35706;52.100;5.056;2023-08-21T03:38:44;102234.47;;;23.64;64.02
49813;BME280;35706;52.100;5.056;2023-08-21T03:39:44;102227.75;;;23.53;64.24
49813;BME280;35706;52.100;5.056;2023-08-21T03:40:45;102227.25;;;23.64;64.12
49813;BME280;35706;52.100;5.056;2023-08-21T03:41:45;102235.41;;;23.71;63.76
49813;BME280;35706;52.100;5.056;2023-08-21T03:42:45;102232.09;;;23.54;63.98
49813;BME280;35706;52.100;5.056;2023-08-21T03:43:46;102238.78;;;23.43;64.63
49813;BME280;35706;52.100;5.056;2023-08-21T03:44:46;102229.03;;;23.57;64.10
49813;BME280;35706;52.100;5.056;2023-08-21T03:45:49;102229.69;;;23.59;63.86
49813;BME280;35706;52.100;5.056;2023-08-21T03:46:50;102230.22;;;23.69;63.89
49813;BME280;35706;52.100;5.056;2023-08-21T03:47:50;102230.56;;;23.66;63.92
49813;BME280;35706;52.100;5.056;2023-08-21T03:48:51;102229.69;;;23.95;62.89
49813;BME280;35706;52.100;5.056;2023-08-21T03:49:51;102235.75;;;23.83;63.96
49813;BME280;35706;52.100;5.056;2023-08-21T03:50:52;102235.00;;;23.74;64.45
49813;BME280;35706;52.100;5.056;2023-08-21T03:51:52;102236.13;;;23.43;65.00
49813;BME280;35706;52.100;5.056;2023-08-21T03:52:52;102234.59;;;23.55;64.47
49813;BME280;35706;52.100;5.056;2023-08-21T03:53:53;102233.94;;;23.53;64.68
49813;BME280;35706;52.100;5.056;2023-08-21T03:54:53;102227.84;;;23.45;64.35
49813;BME280;35706;52.100;5.056;2023-08-21T03:55:53;102236.22;;;23.35;64.90
49813;BME280;35706;52.100;5.056;2023-08-21T03:56:54;102234.19;;;23.37;64.61
49813;BME280;35706;52.100;5.056;2023-08-21T03:57:54;102231.75;;;23.42;64.80
49813;BME280;35706;52.100;5.056;2023-08-21T03:58:54;102235.53;;;23.48;64.27
49813;BME280;35706;52.100;5.056;2023-08-21T03:59:55;102242.53;;;23.64;63.68
49813;BME280;35706;52.100;5.056;2023-08-21T04:00:55;102242.13;;;23.45;64.44
49813;BME280;35706;52.100;5.056;2023-08-21T04:01:55;102229.53;;;23.46;64.21
49813;BME280;35706;52.100;5.056;2023-08-21T04:02:56;102227.28;;;23.49;64.19
49813;BME280;35706;52.100;5.056;2023-08-21T04:03:56;102242.94;;;23.46;64.13
49813;BME280;35706;52.100;5.056;2023-08-21T04:04:56;102231.16;;;23.62;63.80
49813;BME280;35706;52.100;5.056;2023-08-21T04:05:57;102228.31;;;23.48;64.87
49813;BME280;35706;52.100;5.056;2023-08-21T04:06:57;102233.13;;;23.53;64.37
49813;BME280;35706;52.100;5.056;2023-08-21T04:07:57;102230.94;;;23.42;65.15
49813;BME280;35706;52.100;5.056;2023-08-21T04:08:58;102229.16;;;23.34;65.58
49813;BME280;35706;52.100;5.056;2023-08-21T04:09:58;102238.91;;;23.35;65.25
49813;BME280;35706;52.100;5.056;2023-08-21T04:10:58;102234.06;;;23.45;64.68
49813;BME280;35706;52.100;5.056;2023-08-21T04:12:00;102234.41;;;23.57;64.26
49813;BME280;35706;52.100;5.056;2023-08-21T04:13:00;102237.19;;;23.49;63.85
49813;BME280;35706;52.100;5.056;2023-08-21T04:14:00;102242.13;;;23.45;64.40
49813;BME280;35706;52.100;5.056;2023-08-21T04:15:01;102234.34;;;23.50;63.94
49813;BME280;35706;52.100;5.056;2023-08-21T04:16:03;102235.50;;;23.63;64.01
49813;BME280;35706;52.100;5.056;2023-08-21T04:17:03;102237.84;;;23.51;64.67
49813;BME280;35706;52.100;5.056;2023-08-21T04:18:04;102235.22;;;23.57;64.67
49813;BME280;35706;52.100;5.056;2023-08-21T04:19:05;102237.91;;;23.57;64.11
49813;BME280;35706;52.100;5.056;2023-08-21T04:20:06;102245.41;;;23.62;64.12
49813;BME280;35706;52.100;5.056;2023-08-21T04:21:07;102249.41;;;23.36;64.91
49813;BME280;35706;52.100;5.056;2023-08-21T04:22:07;102244.69;;;23.38;64.65
49813;BME280;35706;52.100;5.056;2023-08-21T04:23:08;102254.78;;;23.22;65.19
49813;BME280;35706;52.100;5.056;2023-08-21T04:24:08;102249.31;;;22.85;65.93
49813;BME280;35706;52.100;5.056;2023-08-21T04:25:08;102250.50;;;22.68;66.78
49813;BME280;35706;52.100;5.056;2023-08-21T04:26:09;102247.34;;;22.64;67.04
49813;BME280;35706;52.100;5.056;2023-08-21T04:27:10;102245.59;;;22.56;66.76
49813;BME280;35706;52.100;5.056;2023-08-21T04:28:10;102243.91;;;22.55;66.98
49813;BME280;35706;52.100;5.056;2023-08-21T04:29:10;102243.78;;;22.87;65.81
49813;BME280;35706;52.100;5.056;2023-08-21T04:30:11;102246.88;;;23.28;64.79
49813;BME280;35706;52.100;5.056;2023-08-21T04:31:12;102247.66;;;23.44;63.81
49813;BME280;35706;52.100;5.056;2023-08-21T04:32:12;102235.63;;;23.54;63.63
49813;BME280;35706;52.100;5.056;2023-08-21T04:33:12;102241.78;;;23.70;62.84
49813;BME280;35706;52.100;5.056;2023-08-21T04:34:12;102243.91;;;23.60;63.62
49813;BME280;35706;52.100;5.056;2023-08-21T04:35:13;102251.28;;;23.72;62.97
49813;BME280;35706;52.100;5.056;2023-08-21T04:36:15;102251.69;;;23.69;63.17
49813;BME280;35706;52.100;5.056;2023-08-21T04:37:16;102244.91;;;23.88;62.15
49813;BME280;35706;52.100;5.056;2023-08-21T04:38:16;102247.59;;;23.73;62.65
49813;BME280;35706;52.100;5.056;2023-08-21T04:39:17;102249.94;;;23.62;62.84
49813;BME280;35706;52.100;5.056;2023-08-21T04:40:17;102243.00;;;23.67;63.07
49813;BME280;35706;52.100;5.056;2023-08-21T04:41:20;102240.03;;;23.77;62.70
49813;BME280;35706;52.100;5.056;2023-08-21T04:42:21;102247.53;;;23.82;62.39
49813;BME280;35706;52.100;5.056;2023-08-21T04:43:21;102241.78;;;23.70;62.90
49813;BME280;35706;52.100;5.056;2023-08-21T04:44:22;102246.69;;;23.66;63.11
49813;BME280;35706;52.100;5.056;2023-08-21T04:45:22;102244.66;;;23.53;64.06
49813;BME280;35706;52.100;5.056;2023-08-21T04:46:22;102241.91;;;23.47;63.40
49813;BME280;35706;52.100;5.056;2023-08-21T04:47:26;102246.38;;;23.40;63.76
49813;BME280;35706;52.100;5.056;2023-08-21T04:48:27;102243.19;;;23.51;63.28
49813;BME280;35706;52.100;5.056;2023-08-21T04:49:27;102242.09;;;23.60;63.19
49813;BME280;35706;52.100;5.056;2023-08-21T04:50:28;102242.75;;;23.62;63.01
49813;BME280;35706;52.100;5.056;2023-08-21T04:51:28;102245.84;;;23.66;62.60
49813;BME280;35706;52.100;5.056;2023-08-21T04:52:28;102247.53;;;23.67;63.02
49813;BME280;35706;52.100;5.056;2023-08-21T04:53:29;102247.47;;;23.60;62.61
49813;BME280;35706;52.100;5.056;2023-08-21T04:54:29;102244.94;;;23.22;64.22
49813;BME280;35706;52.100;5.056;2023-08-21T04:55:29;102246.34;;;23.54;62.80
49813;BME280;35706;52.100;5.056;2023-08-21T04:56:30;102250.78;;;23.62;62.26
49813;BME280;35706;52.100;5.056;2023-08-21T04:57:30;102253.66;;;23.61;62.16
49813;BME280;35706;52.100;5.056;2023-08-21T04:58:30;102252.84;;;23.60;62.44
49813;BME280;35706;52.100;5.056;2023-08-21T04:59:31;102250.78;;;23.47;63.39
49813;BME280;35706;52.100;5.056;2023-08-21T05:00:31;102256.28;;;23.39;63.43
49813;BME280;35706;52.100;5.056;2023-08-21T05:01:31;102255.25;;;23.40;63.71
49813;BME280;35706;52.100;5.056;2023-08-21T05:02:33;102252.94;;;22.77;66.04
49813;BME280;35706;52.100;5.056;2023-08-21T05:03:34;102253.47;;;22.88;65.89
49813;BME280;35706;52.100;5.056;2023-08-21T05:04:36;102255.50;;;22.86;65.93
49813;BME280;35706;52.100;5.056;2023-08-21T05:05:36;102250.25;;;22.92;65.85
49813;BME280;35706;52.100;5.056;2023-08-21T05:06:37;102254.41;;;22.95;65.63
49813;BME280;35706;52.100;5.056;2023-08-21T05:07:37;102254.94;;;22.75;66.30
49813;BME280;35706;52.100;5.056;2023-08-21T05:08:37;102257.09;;;22.95;65.72
49813;BME280;35706;52.100;5.056;2023-08-21T05:09:38;102250.44;;;22.91;65.67
49813;BME280;35706;52.100;5.056;2023-08-21T05:10:38;102253.97;;;23.21;64.27
49813;BME280;35706;52.100;5.056;2023-08-21T05:11:38;102254.91;;;23.28;64.41
49813;BME280;35706;52.100;5.056;2023-08-21T05:12:38;102249.16;;;23.31;64.03
49813;BME280;35706;52.100;5.056;2023-08-21T05:13:39;102258.41;;;23.29;64.07
49813;BME280;35706;52.100;5.056;2023-08-21T05:14:39;102258.94;;;23.54;63.39
49813;BME280;35706;52.100;5.056;2023-08-21T05:15:39;102255.97;;;23.49;63.45
49813;BME280;35706;52.100;5.056;2023-08-21T05:16:40;102259.63;;;23.26;64.17
49813;BME280;35706;52.100;5.056;2023-08-21T05:17:40;102257.97;;;23.10;64.92
49813;BME280;35706;52.100;5.056;2023-08-21T05:18:40;102258.28;;;22.77;66.06
49813;BME280;35706;52.100;5.056;2023-08-21T05:19:41;102255.28;;;22.72;66.12